Time;durP1;ratioP1;P1;durP2;ratioP2;P2;SDS_P1;SDS_P2;PMS_P1;PMS_P2;Temp;Humidity;BMP_temperature;BMP_pressure;BME280_temperature;BME280_humidity;BME280_pressure;Samples;Min_cycle;Max_cycle;Signal;HPM_P1;HPM_P2
2024/04/07 00:01:12;;;;;;;2.42;0.88;;;21.80;60.90;;;;;;4951522;28;86437;-69
2024/04/07 00:03:39;;;;;;;2.35;1.20;;;21.80;61.00;;;;;;4952466;28;87504;-70
2024/04/07 00:06:06;;;;;;;2.00;0.63;;;21.80;61.10;;;;;;4954453;28;86269;-69
2024/04/07 00:08:31;;;;;;;2.78;0.90;;;21.80;61.10;;;;;;4952555;28;86071;-69
2024/04/07 00:11:00;;;;;;;2.17;1.08;;;21.80;60.90;;;;;;4950272;28;85797;-70
2024/04/07 00:13:25;;;;;;;1.50;0.70;;;21.80;61.10;;;;;;4952471;28;88454;-69
2024/04/07 00:15:52;;;;;;;2.38;1.20;;;21.80;61.00;;;;;;4955834;28;85759;-69
2024/04/07 00:18:18;;;;;;;1.15;0.73;;;21.80;61.10;;;;;;4956267;28;86023;-69
2024/04/07 00:20:44;;;;;;;0.95;0.77;;;21.70;61.00;;;;;;4953025;28;85906;-69
2024/04/07 00:23:10;;;;;;;2.25;1.25;;;21.80;61.00;;;;;;4952931;28;86643;-69
2024/04/07 00:25:36;;;;;;;1.73;1.10;;;21.80;61.10;;;;;;4954918;28;86437;-69
2024/04/07 00:28:02;;;;;;;1.73;1.00;;;21.80;60.90;;;;;;4936613;28;85731;-69
2024/04/07 00:30:28;;;;;;;2.90;1.05;;;21.80;61.10;;;;;;4953486;28;85956;-69
2024/04/07 00:32:54;;;;;;;1.73;0.93;;;21.80;61.10;;;;;;4953882;28;86322;-69
2024/04/07 00:35:20;;;;;;;1.45;0.90;;;21.80;61.20;;;;;;4950552;28;87826;-70
2024/04/07 00:37:47;;;;;;;1.25;0.88;;;21.80;61.00;;;;;;4951004;28;87842;-70
2024/04/07 00:40:13;;;;;;;1.95;1.05;;;21.80;61.00;;;;;;4951322;28;87434;-69
2024/04/07 00:42:39;;;;;;;2.42;1.42;;;21.70;61.10;;;;;;4947883;28;86946;-69
2024/04/07 00:45:05;;;;;;;1.60;0.77;;;21.70;61.20;;;;;;4951121;28;90424;-69
2024/04/07 00:47:31;;;;;;;2.13;1.50;;;21.70;61.10;;;;;;4951724;28;91087;-69
2024/04/07 00:49:58;;;;;;;1.98;0.80;;;21.70;61.40;;;;;;4934730;28;87561;-69
2024/04/07 00:52:25;;;;;;;2.17;1.08;;;21.70;61.30;;;;;;4950722;28;87278;-69
2024/04/07 00:54:51;;;;;;;1.27;0.80;;;21.70;61.10;;;;;;4933979;28;89060;-70
2024/04/07 00:57:17;;;;;;;1.65;1.02;;;21.70;61.10;;;;;;4951455;28;88604;-69
2024/04/07 00:59:43;;;;;;;1.80;1.13;;;21.70;61.40;;;;;;4954025;28;87407;-69
2024/04/07 01:02:11;;;;;;;1.70;1.10;;;21.70;61.30;;;;;;4950048;28;88536;-69
2024/04/07 01:04:37;;;;;;;2.20;1.02;;;21.70;61.20;;;;;;4952238;28;87510;-69
2024/04/07 01:07:03;;;;;;;0.95;0.70;;;21.70;61.30;;;;;;4950576;28;87760;-69
2024/04/07 01:09:30;;;;;;;1.65;0.88;;;21.70;61.30;;;;;;4952829;28;88531;-69
2024/04/07 01:11:57;;;;;;;2.80;0.95;;;21.70;61.10;;;;;;4951641;28;87544;-69
2024/04/07 01:14:23;;;;;;;2.40;0.98;;;21.70;61.40;;;;;;4946575;28;88573;-69
2024/04/07 01:16:48;;;;;;;1.88;1.00;;;21.70;61.40;;;;;;4950652;28;88330;-69
2024/04/07 01:19:14;;;;;;;2.20;1.05;;;21.70;61.20;;;;;;4952061;28;87443;-69
2024/04/07 01:21:40;;;;;;;1.50;1.05;;;21.70;61.40;;;;;;4953027;28;87384;-70
2024/04/07 01:24:06;;;;;;;2.03;0.70;;;21.70;61.10;;;;;;4952752;28;88044;-69
2024/04/07 01:26:31;;;;;;;2.20;0.88;;;21.70;61.30;;;;;;4951304;28;88540;-69
2024/04/07 01:28:57;;;;;;;1.63;0.80;;;21.70;61.30;;;;;;4953030;28;87351;-69
2024/04/07 01:31:26;;;;;;;2.80;1.10;;;21.70;61.00;;;;;;4949815;28;87008;-69
2024/04/07 01:33:53;;;;;;;0.98;0.77;;;21.70;61.30;;;;;;4951216;28;88448;-69
2024/04/07 01:36:18;;;;;;;1.45;0.75;;;21.70;61.50;;;;;;4952369;28;88695;-68
2024/04/07 01:38:44;;;;;;;2.13;1.00;;;21.70;61.10;;;;;;4951083;28;87668;-69
2024/04/07 01:41:10;;;;;;;1.80;0.88;;;21.70;61.10;;;;;;4947198;28;88867;-70
2024/04/07 01:43:35;;;;;;;1.70;0.88;;;21.60;61.40;;;;;;4947796;28;87136;-69
2024/04/07 01:46:04;;;;;;;2.47;0.80;;;21.60;61.30;;;;;;4948625;28;88941;-70
2024/04/07 01:48:29;;;;;;;1.55;0.80;;;21.60;61.30;;;;;;4952419;28;86832;-69
2024/04/07 01:50:55;;;;;;;1.52;0.90;;;21.60;61.20;;;;;;4952069;28;86323;-70
2024/04/07 01:53:21;;;;;;;1.80;0.85;;;21.60;61.30;;;;;;4951279;28;88633;-69
2024/04/07 01:55:46;;;;;;;1.05;0.77;;;21.60;61.20;;;;;;4943687;28;88346;-69
2024/04/07 01:58:12;;;;;;;2.28;0.75;;;21.70;61.50;;;;;;4950287;28;88272;-69
2024/04/07 02:00:38;;;;;;;1.45;1.00;;;21.60;61.20;;;;;;4951909;28;86984;-70
2024/04/07 02:03:04;;;;;;;2.28;1.05;;;21.60;61.20;;;;;;4950685;28;87557;-70
2024/04/07 02:05:30;;;;;;;1.58;1.20;;;21.60;61.30;;;;;;4950298;28;87901;-69
2024/04/07 02:07:56;;;;;;;1.50;1.33;;;21.60;61.30;;;;;;4947575;28;87301;-69
2024/04/07 02:10:22;;;;;;;1.70;1.10;;;21.60;61.30;;;;;;4949669;28;87372;-70
2024/04/07 02:12:47;;;;;;;1.42;0.80;;;21.60;61.10;;;;;;4949329;28;87573;-69
2024/04/07 02:15:13;;;;;;;1.17;0.70;;;21.60;61.30;;;;;;4967424;28;88129;-69
2024/04/07 02:17:39;;;;;;;1.63;1.17;;;21.60;61.30;;;;;;4951726;28;87291;-69
2024/04/07 02:20:08;;;;;;;0.90;0.80;;;21.60;61.40;;;;;;4946782;28;87734;-70
2024/04/07 02:22:34;;;;;;;1.67;0.80;;;21.60;61.20;;;;;;4946508;28;89925;-69
2024/04/07 02:25:00;;;;;;;1.83;1.00;;;21.60;61.20;;;;;;4951044;28;88407;-69
2024/04/07 02:27:26;;;;;;;0.75;0.70;;;21.60;61.20;;;;;;4933642;28;87532;-69
2024/04/07 02:29:52;;;;;;;1.88;0.82;;;21.60;61.10;;;;;;4949286;28;87308;-69
2024/04/07 02:32:18;;;;;;;1.08;0.70;;;21.60;61.10;;;;;;4948325;28;88127;-69
2024/04/07 02:34:45;;;;;;;1.67;0.90;;;21.60;61.20;;;;;;4950171;28;87441;-69
2024/04/07 02:37:11;;;;;;;1.60;1.00;;;21.60;61.10;;;;;;4950917;28;87838;-69
2024/04/07 02:39:38;;;;;;;2.10;1.33;;;21.60;61.30;;;;;;4952401;28;87408;-69
2024/04/07 02:42:04;;;;;;;2.80;1.23;;;21.60;61.30;;;;;;4950741;28;88150;-69
2024/04/07 02:49:58;;;;;;;1.65;1.02;;;21.60;61.20;;;;;;4950638;28;87267;-69
2024/04/07 02:52:25;;;;;;;1.33;1.08;;;21.60;61.30;;;;;;4947630;28;88203;-70
2024/04/07 02:54:50;;;;;;;2.90;0.80;;;21.60;61.40;;;;;;4947771;28;88674;-69
2024/04/07 02:57:17;;;;;;;2.47;1.02;;;21.60;61.50;;;;;;4950616;28;87417;-69
2024/04/07 02:59:47;;;;;;;2.30;0.98;;;21.60;61.60;;;;;;4948975;28;87281;-69
2024/04/07 03:02:13;;;;;;;2.67;1.77;;;21.60;61.20;;;;;;4948824;28;88126;-69
2024/04/07 03:04:38;;;;;;;1.65;1.10;;;21.60;61.30;;;;;;4950849;28;87424;-69
2024/04/07 03:07:04;;;;;;;1.77;1.00;;;21.60;61.50;;;;;;4951166;28;87428;-69
2024/04/07 03:09:30;;;;;;;1.55;0.57;;;21.60;61.40;;;;;;4948395;28;88034;-70
2024/04/07 03:11:56;;;;;;;1.58;0.85;;;21.60;61.30;;;;;;4948884;28;88614;-69
2024/04/07 03:14:22;;;;;;;1.90;1.17;;;21.60;61.50;;;;;;4949215;28;88758;-69
2024/04/07 03:16:48;;;;;;;1.05;0.77;;;21.60;61.50;;;;;;4945004;28;88507;-69
2024/04/07 03:19:14;;;;;;;1.52;0.80;;;21.60;61.40;;;;;;4945569;28;87823;-69
2024/04/07 03:21:41;;;;;;;1.50;0.90;;;21.60;61.30;;;;;;4949704;28;89140;-69
2024/04/07 03:24:07;;;;;;;1.45;0.90;;;21.60;61.30;;;;;;4945553;28;89292;-69
2024/04/07 03:26:32;;;;;;;1.10;0.80;;;21.60;61.40;;;;;;4949665;28;87301;-69
2024/04/07 03:28:58;;;;;;;1.30;0.80;;;21.60;61.40;;;;;;4949945;28;86880;-69
2024/04/07 03:31:25;;;;;;;0.98;0.93;;;21.50;61.10;;;;;;4960580;28;89129;-69
2024/04/07 03:33:51;;;;;;;1.48;0.80;;;21.60;61.20;;;;;;4959689;28;90947;-69
2024/04/07 03:36:16;;;;;;;3.50;0.95;;;21.60;61.40;;;;;;4949798;28;87928;-69
2024/04/07 03:38:44;;;;;;;2.00;0.98;;;21.60;61.10;;;;;;4949474;28;87864;-69
2024/04/07 03:41:09;;;;;;;1.02;0.82;;;21.60;61.30;;;;;;4945221;28;88284;-70
2024/04/07 03:43:35;;;;;;;2.20;0.98;;;21.50;61.00;;;;;;4950319;28;88445;-69
2024/04/07 03:46:05;;;;;;;1.65;1.23;;;21.50;61.20;;;;;;4949574;28;87083;-69
2024/04/07 03:48:31;;;;;;;1.15;0.88;;;21.50;61.20;;;;;;4945198;28;86888;-69
2024/04/07 03:50:57;;;;;;;1.38;0.88;;;21.60;61.10;;;;;;4949153;28;88077;-70
2024/04/07 03:53:27;;;;;;;2.17;1.10;;;21.50;61.30;;;;;;4948521;28;87380;-69
2024/04/07 03:55:53;;;;;;;1.40;0.82;;;21.60;61.20;;;;;;4947417;28;87977;-69
2024/04/07 03:58:19;;;;;;;0.75;0.60;;;21.60;61.00;;;;;;4945924;28;87745;-69
2024/04/07 04:00:45;;;;;;;1.55;1.10;;;21.60;61.10;;;;;;4949845;28;89502;-69
2024/04/07 04:03:11;;;;;;;1.08;0.73;;;21.60;61.20;;;;;;4939458;28;95728;-69
2024/04/07 04:05:36;;;;;;;1.42;1.02;;;21.50;62.00;;;;;;4949830;28;87288;-69
2024/04/07 04:08:02;;;;;;;0.73;0.70;;;21.50;60.90;;;;;;4944462;28;87646;-70
2024/04/07 04:10:28;;;;;;;1.10;0.80;;;21.50;60.70;;;;;;4950513;28;88061;-69
2024/04/07 04:12:54;;;;;;;1.35;0.63;;;21.50;60.80;;;;;;4949751;28;87843;-69
2024/04/07 04:15:21;;;;;;;1.55;1.20;;;21.50;60.90;;;;;;4950070;28;87317;-69
2024/04/07 04:17:47;;;;;;;1.15;0.82;;;21.50;60.80;;;;;;4948165;28;87378;-69
2024/04/07 04:20:13;;;;;;;1.10;0.70;;;21.50;60.70;;;;;;4945035;28;88805;-69
2024/04/07 04:22:43;;;;;;;1.73;1.00;;;21.50;60.70;;;;;;4946756;28;87948;-70
2024/04/07 04:25:09;;;;;;;1.90;0.95;;;21.50;60.70;;;;;;4949069;28;87903;-70
2024/04/07 04:27:35;;;;;;;1.08;0.82;;;21.50;60.80;;;;;;4948748;28;88005;-69
2024/04/07 04:30:01;;;;;;;0.98;0.65;;;21.50;60.70;;;;;;4948331;28;87565;-69
2024/04/07 04:32:28;;;;;;;1.30;0.90;;;21.50;60.60;;;;;;4942304;28;87820;-70
2024/04/07 04:34:55;;;;;;;1.02;0.70;;;21.50;60.60;;;;;;4947594;28;88171;-69
2024/04/07 04:37:22;;;;;;;1.42;0.77;;;21.50;60.70;;;;;;4945556;28;89011;-70
2024/04/07 04:39:48;;;;;;;0.77;0.52;;;21.50;60.80;;;;;;4949496;28;87435;-69
2024/04/07 04:42:13;;;;;;;1.63;0.90;;;21.50;60.80;;;;;;4948588;28;87970;-69
2024/04/07 04:44:40;;;;;;;1.00;0.77;;;21.50;60.50;;;;;;4947761;28;86889;-69
2024/04/07 04:47:08;;;;;;;1.02;0.70;;;21.50;60.50;;;;;;4947500;28;87480;-69
2024/04/07 04:49:34;;;;;;;1.90;1.08;;;21.50;60.40;;;;;;4945963;28;89345;-70
2024/04/07 04:52:00;;;;;;;0.88;0.75;;;21.50;60.50;;;;;;4950693;28;88160;-69
2024/04/07 04:54:26;;;;;;;1.52;1.02;;;21.50;60.70;;;;;;4952350;28;87474;-69
2024/04/07 04:56:51;;;;;;;0.93;0.68;;;21.50;60.30;;;;;;4951802;28;87736;-69
2024/04/07 04:59:17;;;;;;;1.38;0.95;;;21.50;60.40;;;;;;4952155;28;87211;-70
2024/04/07 05:01:43;;;;;;;0.50;0.50;;;21.50;60.60;;;;;;4946955;28;87674;-69
2024/04/07 05:04:09;;;;;;;0.73;0.73;;;21.50;60.50;;;;;;4952657;28;87505;-71
2024/04/07 05:06:35;;;;;;;2.40;0.90;;;21.50;60.40;;;;;;4952083;28;89467;-70
2024/04/07 05:09:00;;;;;;;1.77;0.80;;;21.50;60.60;;;;;;4950585;28;88441;-70
2024/04/07 05:11:28;;;;;;;1.05;0.77;;;21.50;60.70;;;;;;4951977;28;87495;-69
2024/04/07 05:13:53;;;;;;;1.10;0.90;;;21.60;60.70;;;;;;4948553;28;88067;-70
2024/04/07 05:16:19;;;;;;;2.15;1.02;;;21.60;60.60;;;;;;4950585;28;87489;-70
2024/04/07 05:18:45;;;;;;;0.90;0.80;;;21.60;60.60;;;;;;4949986;28;89617;-69
2024/04/07 05:21:12;;;;;;;2.30;0.82;;;21.50;60.50;;;;;;4952572;28;87715;-69
2024/04/07 05:23:44;;;;;;;1.42;1.08;;;21.60;60.90;;;;;;4949713;28;87188;-69
2024/04/07 05:26:16;;;;;;;2.42;1.05;;;21.60;61.40;;;;;;4966789;28;87963;-70
2024/04/07 05:28:42;;;;;;;2.08;1.00;;;21.60;61.80;;;;;;4952487;28;88885;-69
2024/04/07 05:31:12;;;;;;;1.75;1.00;;;21.50;61.40;;;;;;4948703;28;88724;-70
2024/04/07 05:33:38;;;;;;;1.63;1.00;;;21.60;61.90;;;;;;4951152;28;87404;-70
2024/04/07 05:36:05;;;;;;;1.33;1.10;;;21.60;62.00;;;;;;4950226;28;87706;-69
2024/04/07 05:38:30;;;;;;;1.42;1.00;;;21.60;62.10;;;;;;4948684;28;90245;-69
2024/04/07 05:40:58;;;;;;;2.88;1.60;;;21.60;62.30;;;;;;4949525;28;88188;-68
2024/04/07 05:43:24;;;;;;;1.35;1.00;;;21.60;62.10;;;;;;4951349;28;87195;-70
2024/04/07 05:45:51;;;;;;;2.90;1.10;;;21.60;62.10;;;;;;4949789;28;87059;-69
2024/04/07 05:48:17;;;;;;;1.17;1.08;;;21.60;61.90;;;;;;4950189;28;89261;-69
2024/04/07 05:50:44;;;;;;;1.60;1.08;;;21.60;62.00;;;;;;4951572;28;88769;-70
2024/04/07 05:53:09;;;;;;;1.10;0.90;;;21.60;61.80;;;;;;4924582;28;87574;-69
2024/04/07 05:55:36;;;;;;;2.10;1.10;;;21.60;61.50;;;;;;4953077;28;86258;-69
2024/04/07 05:58:02;;;;;;;2.38;1.58;;;21.60;61.40;;;;;;4946173;28;88323;-69
2024/04/07 06:00:31;;;;;;;5.13;1.75;;;21.60;61.40;;;;;;4950467;28;88738;-70
2024/04/07 06:02:57;;;;;;;1.50;1.00;;;21.60;61.50;;;;;;4949742;28;88449;-70
2024/04/07 06:05:23;;;;;;;1.50;0.90;;;21.60;61.50;;;;;;4951895;28;86876;-69
2024/04/07 06:07:51;;;;;;;1.80;1.10;;;21.60;61.30;;;;;;4949529;28;88637;-69
2024/04/07 06:10:16;;;;;;;1.50;0.90;;;21.60;61.10;;;;;;4949657;28;90317;-69
2024/04/07 06:12:42;;;;;;;1.80;1.00;;;21.60;61.10;;;;;;4952999;28;87683;-69
2024/04/07 06:15:09;;;;;;;1.50;1.23;;;21.60;61.20;;;;;;4951588;28;87917;-70
2024/04/07 06:17:37;;;;;;;5.50;0.88;;;21.70;61.00;;;;;;4946554;28;88034;-69
2024/04/07 06:20:05;;;;;;;1.85;1.00;;;21.80;61.00;;;;;;4948446;28;88027;-71
2024/04/07 06:22:32;;;;;;;1.70;0.90;;;21.80;61.70;;;;;;4949901;28;86963;-70
2024/04/07 06:24:59;;;;;;;1.10;0.88;;;21.80;60.80;;;;;;4948916;28;88221;-69
2024/04/07 06:27:24;;;;;;;3.08;0.98;;;21.80;60.70;;;;;;4948826;28;90532;-71
2024/04/07 06:29:57;;;;;;;1.67;0.82;;;21.90;60.40;;;;;;4949722;28;89214;-69
2024/04/07 06:32:23;;;;;;;2.53;1.25;;;21.90;59.90;;;;;;4950178;28;88066;-70
2024/04/07 06:34:48;;;;;;;3.50;1.67;;;22.00;60.20;;;;;;4948596;28;87592;-70
2024/04/07 06:37:14;;;;;;;4.82;1.30;;;22.00;60.30;;;;;;4948191;28;89883;-70
2024/04/07 06:39:41;;;;;;;2.40;1.23;;;22.00;60.10;;;;;;4950340;28;88342;-69
2024/04/07 06:42:07;;;;;;;9.27;1.55;;;22.00;60.40;;;;;;4948364;28;87396;-69
2024/04/07 06:44:33;;;;;;;4.70;1.50;;;22.00;60.40;;;;;;4947609;28;86995;-71
2024/04/07 06:47:01;;;;;;;9.82;2.95;;;22.10;60.60;;;;;;4946440;28;88275;-71
2024/04/07 06:49:26;;;;;;;5.20;1.73;;;22.20;60.60;;;;;;4945447;28;90450;-72
2024/04/07 06:51:52;;;;;;;4.88;2.05;;;22.30;60.40;;;;;;4946282;28;88230;-70
2024/04/07 06:54:18;;;;;;;5.53;1.85;;;22.40;60.20;;;;;;4950524;28;87434;-70
2024/04/07 06:56:44;;;;;;;8.00;2.67;;;22.40;59.70;;;;;;4946316;28;89432;-70
2024/04/07 06:59:09;;;;;;;11.70;3.08;;;22.50;59.80;;;;;;4946233;28;88033;-70
2024/04/07 07:01:36;;;;;;;17.45;3.90;;;22.50;59.50;;;;;;4948137;28;87344;-69
2024/04/07 07:04:04;;;;;;;15.05;4.80;;;22.50;59.20;;;;;;4947705;28;87516;-69
2024/04/07 07:06:31;;;;;;;18.00;5.32;;;22.50;59.40;;;;;;4949666;28;88619;-70
2024/04/07 07:08:57;;;;;;;16.00;3.70;;;22.50;59.50;;;;;;4943963;28;89045;-71
2024/04/07 07:11:23;;;;;;;16.67;4.30;;;22.50;59.80;;;;;;4948928;28;87654;-71
2024/04/07 07:13:53;;;;;;;25.13;6.43;;;22.50;59.60;;;;;;4947449;28;88539;-71
2024/04/07 07:16:19;;;;;;;17.95;5.85;;;22.50;59.40;;;;;;4945373;28;89068;-71
2024/04/07 07:18:45;;;;;;;21.88;5.65;;;22.50;59.40;;;;;;4948530;28;88951;-69
2024/04/07 07:21:10;;;;;;;12.68;5.00;;;22.50;59.60;;;;;;4948516;28;87963;-71
2024/04/07 07:23:38;;;;;;;21.70;5.13;;;22.50;59.40;;;;;;4946668;28;87604;-65
2024/04/07 07:26:04;;;;;;;24.30;5.00;;;22.60;59.40;;;;;;4946893;28;88223;-70
2024/04/07 07:28:30;;;;;;;14.30;4.90;;;22.60;58.80;;;;;;4945515;28;88114;-69
2024/04/07 07:30:57;;;;;;;18.52;4.22;;;22.60;58.60;;;;;;4947169;28;87571;-70
2024/04/07 07:33:22;;;;;;;19.55;5.25;;;22.50;58.80;;;;;;4949396;28;87915;-71
2024/04/07 07:35:52;;;;;;;24.85;5.03;;;22.50;59.10;;;;;;4942488;28;88906;-70
2024/04/07 07:38:18;;;;;;;20.05;4.95;;;22.50;58.90;;;;;;4944609;28;88428;-70
2024/04/07 07:40:44;;;;;;;15.23;5.03;;;22.60;58.80;;;;;;4940182;28;88193;-70
2024/04/07 07:43:10;;;;;;;15.93;4.50;;;22.50;58.60;;;;;;4947979;28;87713;-71
2024/04/07 07:45:39;;;;;;;16.20;4.28;;;22.50;58.30;;;;;;4944426;28;88569;-71
2024/04/07 07:48:06;;;;;;;14.80;3.90;;;22.50;64.80;;;;;;4945854;28;87387;-71
2024/04/07 07:50:32;;;;;;;18.45;3.67;;;22.40;68.40;;;;;;4941795;28;87537;-71
2024/04/07 07:52:58;;;;;;;11.82;3.53;;;22.30;69.50;;;;;;4946738;28;87170;-71
2024/04/07 07:55:24;;;;;;;13.40;3.50;;;22.20;71.20;;;;;;4941976;28;89236;-71
2024/04/07 07:57:49;;;;;;;8.98;3.03;;;22.10;71.70;;;;;;4943140;28;87820;-70
2024/04/07 08:00:16;;;;;;;13.48;4.18;;;22.00;71.70;;;;;;4947416;28;87517;-71
2024/04/07 08:02:43;;;;;;;10.00;3.30;;;22.00;70.40;;;;;;4946891;28;87697;-71
2024/04/07 08:05:09;;;;;;;10.93;3.03;;;22.00;67.30;;;;;;4943721;28;89265;-71
2024/04/07 08:07:34;;;;;;;11.27;3.08;;;22.00;62.40;;;;;;4943866;28;89475;-71
2024/04/07 08:10:03;;;;;;;12.70;3.42;;;22.00;61.20;;;;;;4947123;28;88015;-71
2024/04/07 08:12:29;;;;;;;12.82;2.78;;;22.00;60.80;;;;;;4948599;28;87273;-71
2024/04/07 08:14:54;;;;;;;9.60;3.10;;;22.00;60.50;;;;;;4939796;28;87765;-72
2024/04/07 08:17:20;;;;;;;17.08;3.53;;;22.10;59.90;;;;;;4943605;28;87653;-71
2024/04/07 08:19:46;;;;;;;9.23;3.42;;;22.20;59.90;;;;;;4944686;28;87246;-70
2024/04/07 08:22:12;;;;;;;10.55;2.80;;;22.20;59.60;;;;;;4946672;28;86966;-70
2024/04/07 08:24:38;;;;;;;12.75;3.47;;;22.20;59.90;;;;;;4947447;28;89464;-71
2024/04/07 08:27:04;;;;;;;9.00;2.90;;;22.30;59.60;;;;;;4950807;28;87915;-70
2024/04/07 08:29:30;;;;;;;12.55;2.72;;;22.40;59.90;;;;;;4939830;28;88609;-72
2024/04/07 08:31:56;;;;;;;7.72;2.40;;;22.40;59.90;;;;;;4950979;28;87295;-71
2024/04/07 08:34:21;;;;;;;6.68;2.22;;;22.30;59.90;;;;;;4950471;28;87355;-71
2024/04/07 08:36:48;;;;;;;9.07;3.55;;;22.30;59.90;;;;;;4952459;28;89481;-71
2024/04/07 08:39:14;;;;;;;10.40;3.33;;;22.30;60.00;;;;;;4968169;28;87747;-71
2024/04/07 08:41:43;;;;;;;4.63;2.38;;;22.10;59.50;;;;;;4950750;28;87862;-71
2024/04/07 08:44:10;;;;;;;10.53;2.67;;;22.00;59.00;;;;;;4952487;28;88786;-71
2024/04/07 08:46:37;;;;;;;4.60;1.83;;;22.00;59.10;;;;;;4951230;28;88004;-71
2024/04/07 08:49:04;;;;;;;9.82;2.50;;;22.00;58.40;;;;;;4952388;28;86936;-71
2024/04/07 08:51:30;;;;;;;5.45;2.45;;;21.90;58.40;;;;;;4941864;28;89749;-70
2024/04/07 08:54:01;;;;;;;6.93;2.20;;;22.00;59.00;;;;;;4928455;28;88895;-70
2024/04/07 08:56:28;;;;;;;5.13;2.08;;;22.10;58.80;;;;;;4942186;28;88832;-71
2024/04/07 08:58:56;;;;;;;6.20;2.85;;;22.10;59.20;;;;;;4951210;28;87296;-71
2024/04/07 09:01:31;;;;;;;6.72;2.30;;;22.10;58.70;;;;;;4947838;28;87561;-71
2024/04/07 09:03:59;;;;;;;8.75;2.40;;;22.10;58.30;;;;;;4949874;28;89031;-70
2024/04/07 09:06:27;;;;;;;5.60;1.70;;;22.10;58.80;;;;;;4952619;28;88766;-69
2024/04/07 09:08:57;;;;;;;10.85;2.70;;;22.20;58.60;;;;;;4951241;28;87472;-69
2024/04/07 09:11:26;;;;;;;7.03;2.25;;;22.20;58.70;;;;;;4950466;28;86991;-70
2024/04/07 09:13:52;;;;;;;8.52;2.00;;;22.10;58.80;;;;;;4952259;28;88013;-72
2024/04/07 09:16:19;;;;;;;4.53;2.15;;;22.10;59.00;;;;;;4950376;28;88055;-71
2024/04/07 09:18:46;;;;;;;5.55;1.70;;;22.10;59.20;;;;;;4953952;28;88365;-71
2024/04/07 09:21:19;;;;;;;7.95;2.03;;;22.10;59.10;;;;;;4952178;28;88613;-71
2024/04/07 09:23:46;;;;;;;6.85;2.33;;;22.10;58.80;;;;;;4951910;28;87941;-73
2024/04/07 09:26:13;;;;;;;5.88;2.42;;;22.20;59.00;;;;;;4943585;28;87708;-72
2024/04/07 09:28:39;;;;;;;8.85;2.85;;;22.20;59.10;;;;;;4944060;28;87442;-71
2024/04/07 09:31:05;;;;;;;8.23;2.22;;;22.20;59.20;;;;;;4943727;28;88953;-72
2024/04/07 09:33:31;;;;;;;7.13;1.85;;;22.20;60.00;;;;;;4948913;28;88740;-72
2024/04/07 09:36:00;;;;;;;13.23;3.30;;;22.20;59.30;;;;;;4949599;28;88190;-71
2024/04/07 09:38:26;;;;;;;9.07;3.50;;;22.20;59.30;;;;;;4948795;28;87616;-74
2024/04/07 09:40:56;;;;;;;10.75;4.60;;;22.20;59.30;;;;;;4952472;28;87428;-72
2024/04/07 09:43:25;;;;;;;21.83;6.18;;;22.20;59.20;;;;;;4950119;28;89119;-69
2024/04/07 09:45:52;;;;;;;18.87;5.57;;;22.20;59.20;;;;;;4942964;28;87683;-70
2024/04/07 09:48:20;;;;;;;16.17;5.00;;;22.10;59.10;;;;;;4945967;28;87544;-70
2024/04/07 09:51:06;;;;;;;15.23;5.18;;;22.20;59.20;;;;;;4950988;28;87349;-71
2024/04/07 09:53:46;;;;;;;18.58;6.00;;;22.30;59.00;;;;;;4961645;28;88562;-74
2024/04/07 09:56:15;;;;;;;14.23;6.00;;;22.30;59.20;;;;;;4949374;28;87926;-70
2024/04/07 09:58:42;;;;;;;17.57;6.10;;;22.30;59.10;;;;;;4951646;28;87254;-69
2024/04/07 10:01:09;;;;;;;17.38;5.25;;;22.30;59.60;;;;;;4952599;28;86787;-74
2024/04/07 10:03:35;;;;;;;13.73;5.18;;;22.40;59.70;;;;;;4952924;28;87691;-74
2024/04/07 10:06:02;;;;;;;12.68;4.65;;;22.40;59.80;;;;;;4949822;28;87875;-73
2024/04/07 10:08:29;;;;;;;12.90;4.30;;;22.40;59.70;;;;;;4950111;28;88712;-73
2024/04/07 10:10:55;;;;;;;16.20;5.32;;;22.40;59.80;;;;;;4950994;28;87372;-74
2024/04/07 10:13:24;;;;;;;15.75;4.63;;;22.50;59.80;;;;;;4965738;28;89122;-70
2024/04/07 10:15:58;;;;;;;13.32;5.00;;;22.50;59.90;;;;;;4952537;28;87685;-70
2024/04/07 10:18:28;;;;;;;11.32;4.10;;;22.40;59.70;;;;;;4954328;28;87491;-72
2024/04/07 10:20:54;;;;;;;17.35;4.00;;;22.50;59.70;;;;;;4933081;28;89818;-72
2024/04/07 10:23:24;;;;;;;13.00;4.75;;;22.40;59.80;;;;;;4950621;28;88623;-71
2024/04/07 10:25:50;;;;;;;11.05;4.55;;;22.40;59.90;;;;;;4950246;28;87328;-71
2024/04/07 10:28:16;;;;;;;13.73;4.68;;;22.40;59.60;;;;;;4947560;28;87402;-73
2024/04/07 10:30:56;;;;;;;11.77;4.00;;;22.40;59.50;;;;;;4950287;28;87706;-73
2024/04/07 10:33:27;;;;;;;10.23;4.70;;;22.40;59.50;;;;;;4949430;28;93165;-69
2024/04/07 10:36:08;;;;;;;10.32;4.13;;;22.40;59.70;;;;;;4944688;28;88845;-74
2024/04/07 10:39:04;;;;;;;12.50;4.38;;;22.40;59.50;;;;;;4948184;28;87006;-73
2024/04/07 10:41:31;;;;;;;16.08;4.35;;;22.40;59.70;;;;;;4944813;28;87420;-73
2024/04/07 10:43:58;;;;;;;9.30;3.40;;;22.40;59.20;;;;;;4947440;28;88131;-73
2024/04/07 10:46:24;;;;;;;9.70;3.47;;;22.40;59.10;;;;;;4945195;28;87272;-67
2024/04/07 10:48:53;;;;;;;13.10;3.40;;;22.40;59.20;;;;;;4948537;28;87296;-67
2024/04/07 10:51:19;;;;;;;13.53;3.97;;;22.40;58.90;;;;;;4950281;28;91349;-64
2024/04/07 10:53:46;;;;;;;10.70;3.63;;;22.50;58.40;;;;;;4947376;28;88203;-71
2024/04/07 10:56:12;;;;;;;10.27;3.47;;;22.60;59.20;;;;;;4946465;28;88579;-73
2024/04/07 10:58:39;;;;;;;10.32;3.42;;;22.60;58.90;;;;;;4945346;28;88581;-68
2024/04/07 11:01:06;;;;;;;6.75;3.15;;;22.60;59.20;;;;;;4948980;28;87906;-74
2024/04/07 11:03:38;;;;;;;9.55;3.33;;;22.60;58.90;;;;;;4947824;28;88773;-73
2024/04/07 11:06:04;;;;;;;10.02;3.13;;;22.60;59.10;;;;;;4947227;28;89305;-72
2024/04/07 11:08:31;;;;;;;8.70;3.42;;;22.60;58.80;;;;;;4946042;28;87561;-67
2024/04/07 11:10:57;;;;;;;9.93;3.00;;;22.60;58.60;;;;;;4946497;28;87873;-68
2024/04/07 11:13:23;;;;;;;10.23;3.25;;;22.60;58.10;;;;;;4948472;28;88064;-70
2024/04/07 11:15:50;;;;;;;9.00;3.28;;;22.60;58.10;;;;;;4948222;28;87830;-69
2024/04/07 11:18:18;;;;;;;11.18;3.33;;;22.60;58.30;;;;;;4946296;28;87388;-69
2024/04/07 11:20:44;;;;;;;9.32;3.13;;;22.60;58.40;;;;;;4945342;28;87751;-74
2024/04/07 11:23:12;;;;;;;12.45;4.00;;;22.70;58.40;;;;;;4948345;28;89803;-72
2024/04/07 11:25:42;;;;;;;8.98;3.45;;;22.60;58.40;;;;;;4950033;28;87534;-72
2024/04/07 11:28:09;;;;;;;7.10;2.60;;;22.60;58.50;;;;;;4950281;28;87352;-76
2024/04/07 11:30:58;;;;;;;11.38;2.85;;;22.50;58.40;;;;;;4949999;28;87355;-75
2024/04/07 11:33:25;;;;;;;6.47;2.72;;;22.40;58.50;;;;;;4950060;28;92707;-74
2024/04/07 11:35:52;;;;;;;9.13;3.40;;;22.50;58.50;;;;;;4948746;28;87920;-75
2024/04/07 11:38:20;;;;;;;9.88;3.90;;;22.40;58.60;;;;;;4949263;28;87804;-75
2024/04/07 11:40:48;;;;;;;9.70;2.45;;;22.40;58.60;;;;;;4959834;28;87504;-74
2024/04/07 11:43:14;;;;;;;6.28;2.75;;;22.40;58.70;;;;;;4949357;28;88120;-70
2024/04/07 11:45:40;;;;;;;8.70;3.53;;;22.40;58.90;;;;;;4931529;28;88935;-73
2024/04/07 11:48:07;;;;;;;6.47;2.63;;;22.40;58.80;;;;;;4948941;28;88987;-75
2024/04/07 11:50:34;;;;;;;7.95;2.92;;;22.30;58.80;;;;;;4947950;28;87680;-72
2024/04/07 11:53:00;;;;;;;5.20;2.63;;;22.30;58.80;;;;;;4950753;28;87656;-72
2024/04/07 11:55:26;;;;;;;4.78;2.40;;;22.30;58.90;;;;;;4931550;28;87665;-74
2024/04/07 11:57:54;;;;;;;6.68;2.63;;;22.30;58.90;;;;;;4948190;28;87350;-72
2024/04/07 12:00:20;;;;;;;9.80;3.10;;;22.30;59.00;;;;;;4951734;28;88275;-71
2024/04/07 12:02:46;;;;;;;6.35;3.28;;;22.30;58.80;;;;;;4948909;28;89996;-75
2024/04/07 12:05:13;;;;;;;7.22;2.78;;;22.30;58.90;;;;;;4954253;28;87870;-74
2024/04/07 12:07:39;;;;;;;8.90;3.00;;;22.30;58.90;;;;;;4951429;28;87187;-74
2024/04/07 12:10:05;;;;;;;8.07;2.80;;;22.30;58.90;;;;;;4954461;28;87039;-72
2024/04/07 12:12:30;;;;;;;7.60;3.05;;;22.30;58.70;;;;;;4951119;28;90161;-74
2024/04/07 12:14:59;;;;;;;6.25;2.33;;;22.30;58.90;;;;;;4945331;28;88617;-75
2024/04/07 12:17:25;;;;;;;7.13;3.28;;;22.30;58.80;;;;;;4954101;28;87538;-74
2024/04/07 12:19:51;;;;;;;5.15;2.45;;;22.30;58.80;;;;;;4953273;28;87039;-71
2024/04/07 12:22:19;;;;;;;8.95;2.70;;;22.40;58.90;;;;;;4953242;28;88287;-75
2024/04/07 12:24:45;;;;;;;5.78;2.65;;;22.30;58.90;;;;;;4954481;28;87709;-76
2024/04/07 12:27:11;;;;;;;4.63;2.30;;;22.30;58.80;;;;;;4952549;28;87475;-73
2024/04/07 12:29:39;;;;;;;6.07;2.17;;;22.30;58.80;;;;;;4951761;28;89728;-75
2024/04/07 12:32:06;;;;;;;7.07;2.55;;;22.30;58.80;;;;;;4953658;28;87435;-74
2024/04/07 12:34:31;;;;;;;7.18;2.65;;;22.30;58.90;;;;;;4953432;28;87557;-74
2024/04/07 12:36:57;;;;;;;6.65;2.25;;;22.30;58.90;;;;;;4952596;28;89032;-69
2024/04/07 12:39:23;;;;;;;5.80;2.53;;;22.40;59.00;;;;;;4954924;28;87380;-74
2024/04/07 12:41:51;;;;;;;6.88;2.25;;;22.30;59.00;;;;;;4951606;28;88064;-74
2024/04/07 12:44:18;;;;;;;8.15;2.20;;;22.40;58.80;;;;;;4950331;28;88671;-71
2024/04/07 12:46:45;;;;;;;7.38;3.25;;;22.30;58.90;;;;;;4952336;28;87570;-72
2024/04/07 12:49:19;;;;;;;8.27;2.80;;;22.40;58.70;;;;;;4951010;28;89449;-73